createdAt,value
2019-03-22T00:00:48.423Z,90.55
2019-03-22T00:03:17.772Z,96.32
2019-03-22T00:05:47.100Z,93.22
2019-03-22T00:08:16.436Z,86.90
2019-03-22T00:10:45.765Z,92.10
2019-03-22T00:13:15.094Z,91.00
2019-03-22T00:15:44.745Z,93.35
2019-03-22T00:18:14.074Z,88.85
2019-03-22T00:20:43.410Z,97.57
2019-03-22T00:23:13.066Z,94.15
2019-03-22T00:25:42.398Z,99.30
2019-03-22T00:28:11.973Z,85.50
2019-03-22T00:30:41.386Z,92.97
2019-03-22T00:33:10.709Z,90.32
2019-03-22T00:35:40.042Z,94.58
2019-03-22T00:38:10.341Z,90.12
2019-03-22T00:40:40.031Z,96.57
2019-03-22T00:43:09.593Z,93.33
2019-03-22T00:45:38.931Z,97.70
2019-03-22T00:48:08.534Z,93.62
2019-03-22T00:50:37.866Z,95.38
2019-03-22T00:53:07.188Z,97.08
2019-03-22T00:55:36.517Z,90.77
2019-03-22T00:58:05.847Z,93.60
2019-03-22T01:00:35.182Z,96.08
2019-03-22T01:03:04.514Z,104.60
2019-03-22T01:05:33.873Z,95.20
2019-03-22T01:08:03.437Z,93.25
2019-03-22T01:10:32.770Z,91.85
2019-03-22T01:13:02.102Z,97.25
2019-03-22T01:15:31.767Z,96.78
2019-03-22T01:18:01.173Z,102.25
2019-03-22T01:20:30.508Z,97.67
2019-03-22T01:22:59.852Z,91.95
2019-03-22T01:25:29.190Z,101.55
2019-03-22T01:27:58.592Z,94.52
2019-03-22T01:30:27.940Z,98.42
2019-03-22T01:32:57.263Z,93.55
2019-03-22T01:35:26.605Z,99.58
2019-03-22T01:37:55.939Z,98.47
2019-03-22T01:40:25.279Z,90.05
2019-03-22T01:42:54.613Z,95.17
2019-03-22T01:45:23.953Z,93.10
2019-03-22T01:47:53.284Z,97.22
2019-03-22T01:50:22.631Z,96.32
2019-03-22T01:52:51.961Z,91.57
2019-03-22T01:55:21.345Z,100.47
2019-03-22T01:57:53.593Z,95.38
2019-03-22T02:00:21.724Z,90.87
2019-03-22T02:02:51.059Z,91.67
2019-03-22T02:05:20.765Z,93.12
2019-03-22T02:07:50.105Z,96.65
2019-03-22T02:10:19.692Z,101.45
2019-03-22T02:12:49.280Z,102.05
2019-03-22T02:15:18.685Z,93.65
2019-03-22T02:17:48.017Z,84.00
2019-03-22T02:20:19.017Z,85.77
2019-03-22T02:22:48.346Z,99.10
2019-03-22T02:25:17.676Z,93.60
2019-03-22T02:27:47.009Z,94.92
2019-03-22T02:30:17.782Z,95.35
2019-03-22T02:32:47.181Z,95.60
2019-03-22T02:35:28.498Z,101.72
2019-03-22T02:37:47.546Z,94.92
2019-03-22T02:40:16.908Z,93.65
2019-03-22T02:42:47.562Z,94.28
2019-03-22T02:45:17.369Z,95.45
2019-03-22T02:47:46.700Z,90.25
2019-03-22T02:50:19.017Z,91.87
2019-03-22T02:52:48.037Z,90.75
2019-03-22T02:55:17.654Z,97.25
2019-03-22T02:57:47.005Z,94.05
2019-03-22T03:00:19.542Z,86.90
2019-03-22T03:02:48.863Z,90.75
2019-03-22T03:05:18.263Z,90.17
2019-03-22T03:07:47.604Z,86.37
2019-03-22T03:10:17.782Z,88.05
2019-03-22T03:12:47.173Z,90.95
2019-03-22T03:15:17.544Z,93.07
2019-03-22T03:17:46.974Z,90.50
2019-03-22T03:20:18.031Z,92.53
2019-03-22T03:22:47.535Z,92.10
2019-03-22T03:25:18.014Z,92.33
2019-03-22T03:27:47.690Z,91.28
2019-03-22T03:30:22.984Z,93.70
2019-03-22T03:32:52.329Z,98.45
2019-03-22T03:35:21.651Z,90.90
2019-03-22T03:37:50.988Z,92.82
2019-03-22T03:40:20.342Z,86.10
2019-03-22T03:42:49.683Z,90.50
2019-03-22T03:45:36.034Z,92.67
2019-03-22T03:48:09.845Z,93.42
2019-03-22T03:53:07.935Z,95.75
2019-03-22T03:55:37.351Z,83.72
2019-03-22T03:58:06.909Z,86.30
2019-03-22T04:00:36.250Z,92.72
2019-03-22T04:03:05.749Z,91.15
2019-03-22T04:05:35.069Z,93.25
2019-03-22T04:08:04.749Z,89.50
2019-03-22T04:10:34.080Z,89.65
2019-03-22T04:13:03.775Z,93.15
2019-03-22T04:15:34.094Z,90.45
2019-03-22T04:18:03.412Z,90.92
2019-03-22T04:20:32.739Z,85.65
2019-03-22T04:23:02.070Z,93.20
2019-03-22T04:25:31.404Z,87.37
2019-03-22T04:28:00.735Z,95.22
2019-03-22T04:30:31.339Z,83.20
2019-03-22T04:33:00.676Z,89.75
2019-03-22T04:35:30.005Z,90.05
2019-03-22T04:37:59.364Z,87.97
2019-03-22T04:40:29.733Z,90.77
2019-03-22T04:42:59.061Z,91.28
2019-03-22T04:45:33.468Z,88.07
2019-03-22T04:48:08.770Z,86.05
2019-03-22T04:50:41.158Z,84.58
2019-03-22T04:53:13.795Z,83.45
2019-03-22T04:55:45.955Z,94.77
2019-03-22T04:58:17.714Z,91.75
2019-03-22T05:00:47.986Z,83.78
2019-03-22T05:03:18.670Z,89.05
2019-03-22T05:05:49.541Z,85.47
2019-03-22T05:08:20.611Z,98.33
2019-03-22T05:10:50.479Z,90.10
2019-03-22T05:13:21.426Z,89.20
2019-03-22T05:15:51.230Z,89.40
2019-03-22T05:18:21.002Z,85.70
2019-03-22T05:20:52.275Z,96.08
2019-03-22T05:23:23.708Z,86.55
2019-03-22T05:25:56.102Z,86.53
2019-03-22T05:28:28.075Z,96.60
2019-03-22T05:31:11.988Z,88.80
2019-03-22T05:33:41.321Z,92.95
2019-03-22T05:36:10.654Z,94.28
2019-03-22T05:38:39.985Z,90.20
2019-03-22T05:41:09.339Z,92.15
2019-03-22T05:43:38.665Z,99.20
2019-03-22T05:46:08.010Z,87.78
2019-03-22T05:48:37.330Z,95.12
2019-03-22T05:51:06.698Z,90.53
2019-03-22T05:53:35.995Z,89.75
2019-03-22T05:56:08.026Z,82.40
2019-03-22T05:58:37.347Z,93.22
2019-03-22T06:01:07.006Z,96.45
2019-03-22T06:03:36.333Z,88.35
2019-03-22T06:06:05.671Z,89.25
2019-03-22T06:08:34.997Z,91.15
2019-03-22T06:11:04.739Z,91.57
2019-03-22T06:13:34.065Z,95.65
2019-03-22T06:16:04.480Z,94.47
2019-03-22T06:18:33.805Z,93.22
2019-03-22T06:21:03.142Z,88.10
2019-03-22T06:23:32.471Z,84.97
2019-03-22T06:26:01.968Z,90.60
2019-03-22T06:28:31.296Z,90.25
2019-03-22T06:31:00.902Z,96.78
2019-03-22T06:33:30.229Z,96.22
2019-03-22T06:35:59.574Z,90.12
2019-03-22T06:38:28.902Z,101.22
2019-03-22T06:40:58.242Z,88.52
2019-03-22T06:43:27.638Z,87.82
2019-03-22T06:45:56.967Z,80.87
2019-03-22T06:48:26.598Z,86.92
2019-03-22T06:50:56.212Z,91.37
2019-03-22T06:53:25.541Z,93.17
2019-03-22T06:55:54.875Z,84.92
2019-03-22T06:58:24.524Z,79.45
2019-03-22T07:00:55.166Z,82.78
2019-03-22T07:03:24.494Z,83.60
2019-03-22T07:05:53.827Z,80.67
2019-03-22T07:08:23.169Z,83.47
2019-03-22T07:10:52.770Z,83.87
2019-03-22T07:13:23.407Z,84.75
2019-03-22T07:15:52.734Z,91.67
2019-03-22T07:18:22.068Z,85.72
2019-03-22T07:20:51.409Z,99.85
2019-03-22T07:23:21.019Z,90.30
2019-03-22T07:25:50.631Z,103.50
2019-03-22T07:28:19.962Z,92.55
2019-03-22T07:30:49.297Z,93.82
2019-03-22T07:33:18.636Z,98.67
2019-03-22T07:35:47.967Z,97.95
2019-03-22T07:38:17.302Z,102.67
2019-03-22T07:40:46.637Z,99.15
2019-03-22T07:43:15.979Z,98.55
2019-03-22T07:45:45.651Z,103.35
2019-03-22T07:48:14.998Z,103.07
2019-03-22T07:50:44.331Z,102.80
2019-03-22T07:53:13.668Z,98.05
2019-03-22T07:55:43.000Z,104.40
2019-03-22T07:58:12.564Z,94.58
2019-03-22T08:00:41.893Z,97.82
2019-03-22T08:03:11.236Z,101.70
2019-03-22T08:05:50.969Z,94.62
2019-03-22T08:08:11.913Z,97.53
2019-03-22T08:10:41.273Z,86.00
2019-03-22T08:13:10.594Z,85.75
2019-03-22T08:15:39.924Z,81.67
2019-03-22T08:18:09.326Z,82.53
2019-03-22T08:20:39.043Z,75.15
2019-03-22T08:23:22.619Z,74.97
2019-03-22T08:25:51.947Z,75.28
2019-03-22T08:28:21.295Z,64.50
2019-03-22T08:30:50.690Z,56.18
2019-03-22T08:33:20.049Z,48.70
2019-03-22T08:35:49.376Z,52.10
2019-03-22T08:38:18.736Z,61.70
2019-03-22T08:40:48.032Z,49.50
2019-03-22T08:43:17.390Z,57.38
2019-03-22T08:45:46.703Z,52.20
2019-03-22T08:48:16.032Z,51.83
2019-03-22T08:50:45.362Z,52.60
2019-03-22T08:53:16.060Z,52.05
2019-03-22T08:55:45.367Z,52.20
2019-03-22T08:58:14.699Z,53.68
2019-03-22T09:00:56.613Z,47.13
2019-03-22T09:03:15.388Z,39.05
2019-03-22T09:05:44.723Z,46.63
2019-03-22T09:08:16.110Z,46.50
2019-03-22T09:10:45.131Z,48.60
2019-03-22T09:13:14.442Z,40.12
2019-03-22T09:15:43.843Z,43.87
2019-03-22T09:18:15.437Z,42.03
2019-03-22T09:20:44.218Z,39.25
2019-03-22T09:23:13.573Z,37.93
2019-03-22T09:25:42.911Z,41.80
2019-03-22T09:28:12.223Z,41.92
2019-03-22T09:30:41.623Z,39.23
2019-03-22T09:33:13.338Z,41.10
2019-03-22T09:35:41.983Z,40.90
2019-03-22T09:38:13.035Z,29.37
2019-03-22T09:40:42.678Z,32.30
2019-03-22T09:43:12.087Z,31.50
2019-03-22T09:45:41.422Z,31.60
2019-03-22T09:48:10.815Z,27.50
2019-03-22T09:50:40.165Z,24.95
2019-03-22T09:53:09.555Z,22.98
2019-03-22T09:55:38.889Z,20.02
2019-03-22T09:58:08.177Z,21.50
2019-03-22T10:00:37.531Z,22.73
2019-03-22T10:03:06.860Z,21.20
2019-03-22T10:05:36.227Z,24.95
2019-03-22T10:08:05.847Z,27.00
2019-03-22T10:10:35.195Z,26.57
2019-03-22T10:13:04.503Z,23.83
2019-03-22T10:15:33.912Z,21.82
2019-03-22T10:18:03.251Z,25.92
2019-03-22T10:20:32.592Z,22.22
2019-03-22T10:23:01.979Z,24.65
2019-03-22T10:25:31.276Z,24.37
2019-03-22T10:28:00.613Z,25.23
2019-03-22T10:30:30.628Z,24.60
2019-03-22T10:32:59.964Z,33.08
2019-03-22T10:35:29.316Z,27.65
2019-03-22T10:38:00.851Z,26.68
2019-03-22T10:40:29.703Z,27.42
2019-03-22T10:42:59.108Z,25.90
2019-03-22T10:45:28.410Z,34.88
2019-03-22T10:47:57.718Z,28.25
2019-03-22T10:50:27.096Z,26.33
2019-03-22T10:52:56.414Z,27.17
2019-03-22T10:55:30.456Z,26.02
2019-03-22T10:57:56.772Z,30.62
2019-03-22T11:00:26.109Z,27.50
2019-03-22T11:02:55.445Z,29.02
2019-03-22T11:05:24.787Z,25.20
2019-03-22T11:07:54.124Z,25.85
2019-03-22T11:10:23.462Z,22.40
2019-03-22T11:12:52.800Z,26.50
2019-03-22T11:15:23.925Z,23.20
2019-03-22T11:17:53.430Z,21.73
2019-03-22T11:20:22.758Z,18.82
2019-03-22T11:22:52.093Z,21.30
2019-03-22T11:25:21.429Z,18.25
2019-03-22T11:27:50.758Z,18.75
2019-03-22T11:30:20.234Z,21.97
2019-03-22T11:32:49.569Z,21.17
2019-03-22T11:35:18.896Z,16.73
2019-03-22T11:37:48.300Z,18.73
2019-03-22T11:40:18.373Z,15.45
2019-03-22T11:42:47.769Z,17.20
2019-03-22T11:45:24.679Z,19.62
2019-03-22T11:47:54.145Z,13.53
2019-03-22T11:50:23.495Z,18.50
2019-03-22T11:52:52.889Z,17.52
2019-03-22T11:55:22.331Z,20.15
2019-03-22T11:57:52.116Z,20.27
2019-03-22T12:00:24.384Z,17.52
2019-03-22T12:05:23.571Z,12.00
2019-03-22T12:07:54.528Z,15.53
2019-03-22T12:10:24.123Z,15.80
2019-03-22T12:12:53.524Z,12.63
2019-03-22T12:15:23.802Z,22.27
2019-03-22T12:17:53.206Z,17.05
2019-03-22T12:20:23.688Z,12.78
2019-03-22T12:22:53.497Z,15.43
2019-03-22T12:25:25.247Z,15.75
2019-03-22T12:27:54.572Z,14.28
2019-03-22T12:30:23.910Z,14.75
2019-03-22T12:32:53.308Z,17.40
2019-03-22T12:35:22.650Z,16.07
2019-03-22T12:37:52.014Z,16.73
2019-03-22T12:40:22.954Z,19.50
2019-03-22T12:42:52.356Z,18.95
2019-03-22T12:45:30.070Z,15.63
2019-03-22T12:47:59.403Z,14.55
2019-03-22T12:50:28.804Z,17.48
2019-03-22T12:52:58.134Z,15.65
2019-03-22T12:55:27.474Z,13.18
2019-03-22T12:57:56.804Z,6.83
2019-03-22T13:00:26.768Z,14.63
2019-03-22T13:02:56.163Z,15.63
2019-03-22T13:05:25.506Z,15.70
2019-03-22T13:07:54.832Z,17.07
2019-03-22T13:10:26.113Z,19.27
2019-03-22T13:12:55.847Z,11.70
2019-03-22T13:15:25.418Z,20.05
2019-03-22T13:17:54.746Z,13.90
2019-03-22T13:20:24.078Z,13.53
2019-03-22T13:22:53.406Z,17.92
2019-03-22T13:25:22.740Z,9.13
2019-03-22T13:27:52.095Z,5.90
2019-03-22T13:30:29.969Z,18.60
2019-03-22T13:32:59.471Z,16.50
2019-03-22T13:35:28.800Z,17.00
2019-03-22T13:37:58.438Z,16.65
2019-03-22T13:40:27.764Z,13.90
2019-03-22T13:42:57.099Z,16.90
2019-03-22T13:45:26.759Z,15.70
2019-03-22T13:47:56.220Z,9.40
2019-03-22T13:50:25.552Z,16.67
2019-03-22T13:52:55.029Z,16.73
2019-03-22T13:55:24.377Z,13.55
2019-03-22T13:57:53.700Z,18.73
2019-03-22T14:00:23.032Z,15.63
2019-03-22T14:03:02.120Z,13.85
2019-03-22T14:05:23.805Z,16.37
2019-03-22T14:07:53.190Z,11.03
2019-03-22T14:10:30.050Z,14.43
2019-03-22T14:13:01.021Z,12.98
2019-03-22T14:15:30.662Z,10.60
2019-03-22T14:18:00.436Z,13.32
2019-03-22T14:20:30.496Z,13.88
2019-03-22T14:22:59.840Z,11.90
2019-03-22T14:25:29.238Z,8.73
2019-03-22T14:27:58.737Z,6.05
2019-03-22T14:30:28.137Z,5.12
2019-03-22T14:32:57.480Z,4.60
2019-03-22T14:35:28.508Z,13.20
2019-03-22T14:37:57.912Z,8.75
2019-03-22T14:40:27.236Z,4.33
2019-03-22T14:42:56.579Z,4.97
2019-03-22T14:45:26.028Z,5.60
2019-03-22T14:47:55.292Z,8.88
2019-03-22T14:50:24.622Z,6.08
2019-03-22T14:52:53.947Z,6.30
2019-03-22T14:55:23.320Z,3.22
2019-03-22T14:57:52.993Z,6.75
2019-03-22T15:00:22.348Z,3.92
2019-03-22T15:02:51.983Z,7.17
2019-03-22T15:05:21.313Z,3.35
2019-03-22T15:07:50.634Z,3.72
2019-03-22T15:10:19.961Z,6.67
2019-03-22T15:12:49.288Z,5.75
2019-03-22T15:15:20.268Z,5.15
2019-03-22T15:17:51.238Z,6.60
2019-03-22T15:20:22.438Z,8.73
2019-03-22T15:22:53.396Z,5.08
2019-03-22T15:25:40.496Z,7.85
2019-03-22T15:28:11.460Z,5.58
2019-03-22T15:30:58.436Z,5.80
2019-03-22T15:33:38.549Z,5.17
2019-03-22T15:36:18.487Z,5.25
2019-03-22T15:38:55.721Z,5.95
2019-03-22T15:41:25.200Z,8.33
2019-03-22T15:43:54.582Z,10.68
2019-03-22T15:46:23.874Z,15.43
2019-03-22T15:48:53.201Z,16.77
2019-03-22T15:51:22.532Z,5.70
2019-03-22T15:53:51.860Z,4.25
2019-03-22T15:56:21.188Z,6.83
2019-03-22T15:58:50.507Z,4.33
2019-03-22T16:01:19.841Z,7.75
2019-03-22T16:03:49.180Z,11.53
2019-03-22T16:06:18.513Z,9.60
2019-03-22T16:08:47.920Z,14.75
2019-03-22T16:11:17.196Z,3.90
2019-03-22T16:13:46.521Z,6.33
2019-03-22T16:16:15.851Z,7.75
2019-03-22T16:18:45.183Z,11.30
2019-03-22T16:21:14.571Z,7.17
2019-03-22T16:23:43.897Z,5.40
2019-03-22T16:26:13.268Z,4.78
2019-03-22T16:28:42.598Z,5.92
2019-03-22T16:31:11.929Z,10.43
2019-03-22T16:33:41.259Z,9.15
2019-03-22T16:36:11.656Z,12.00
2019-03-22T16:38:40.988Z,6.97
2019-03-22T16:41:10.326Z,7.62
2019-03-22T16:43:39.656Z,19.70
2019-03-22T16:46:09.325Z,4.28
2019-03-22T16:48:38.661Z,4.62
2019-03-22T16:51:08.050Z,10.70
2019-03-22T16:53:37.649Z,8.28
2019-03-22T16:56:06.974Z,6.65
2019-03-22T16:58:36.303Z,9.48
2019-03-22T17:01:06.670Z,8.75
2019-03-22T17:03:36.005Z,8.05
2019-03-22T17:06:05.399Z,5.85
2019-03-22T17:08:34.719Z,7.67
2019-03-22T17:11:04.046Z,7.62
2019-03-22T17:13:33.374Z,9.20
2019-03-22T17:16:02.707Z,6.78
2019-03-22T17:18:32.038Z,8.70
2019-03-22T17:21:01.459Z,8.68
2019-03-22T17:23:30.750Z,7.62
2019-03-22T17:26:00.081Z,5.58
2019-03-22T17:28:29.400Z,6.37
2019-03-22T17:30:58.719Z,6.25
2019-03-22T17:33:28.052Z,5.53
2019-03-22T17:35:57.370Z,4.60
2019-03-22T17:38:26.702Z,5.95
2019-03-22T17:40:56.025Z,7.92
2019-03-22T17:43:25.361Z,5.30
2019-03-22T17:45:54.694Z,4.55
2019-03-22T17:48:24.020Z,4.92
2019-03-22T17:50:53.345Z,4.78
2019-03-22T17:53:22.682Z,5.87
2019-03-22T17:55:52.013Z,5.20
2019-03-22T17:58:21.347Z,5.85
2019-03-22T18:00:50.831Z,6.80
2019-03-22T18:03:20.159Z,5.45
2019-03-22T18:05:49.487Z,8.45
2019-03-22T18:08:18.826Z,5.97
2019-03-22T18:10:48.149Z,6.17
2019-03-22T18:13:17.481Z,6.95
2019-03-22T18:15:46.807Z,5.67
2019-03-22T18:18:16.155Z,8.00
2019-03-22T18:20:45.471Z,8.08
2019-03-22T18:23:14.811Z,9.25
2019-03-22T18:25:44.135Z,7.05
2019-03-22T18:28:13.466Z,9.35
2019-03-22T18:30:42.792Z,6.35
2019-03-22T18:33:12.121Z,5.25
2019-03-22T18:35:41.453Z,7.30
2019-03-22T18:38:11.750Z,9.00
2019-03-22T18:40:41.077Z,5.03
2019-03-22T18:43:10.397Z,6.28
2019-03-22T18:45:39.721Z,5.20
2019-03-22T18:48:09.096Z,9.10
2019-03-22T18:50:38.693Z,8.60
2019-03-22T18:53:08.021Z,10.93
2019-03-22T18:55:37.358Z,9.05
2019-03-22T18:58:06.713Z,8.25
2019-03-22T19:00:36.067Z,9.40
2019-03-22T19:03:05.424Z,10.35
2019-03-22T19:05:34.764Z,10.82
2019-03-22T19:08:04.328Z,9.15
2019-03-22T19:10:33.668Z,12.65
2019-03-22T19:13:02.988Z,14.43
2019-03-22T19:15:32.322Z,13.80
2019-03-22T19:18:01.653Z,11.55
2019-03-22T19:20:30.981Z,11.40
2019-03-22T19:23:00.309Z,13.50
2019-03-22T19:25:29.648Z,10.95
2019-03-22T19:27:59.540Z,13.75
2019-03-22T19:30:28.865Z,13.15
2019-03-22T19:32:58.194Z,15.30
2019-03-22T19:35:27.530Z,12.58
2019-03-22T19:37:56.864Z,16.85
2019-03-22T19:40:26.194Z,12.68
2019-03-22T19:42:55.516Z,16.30
2019-03-22T19:45:24.845Z,13.55
2019-03-22T19:47:54.269Z,20.45
2019-03-22T19:50:23.602Z,12.70
2019-03-22T19:52:52.927Z,12.15
2019-03-22T19:55:22.271Z,16.87
2019-03-22T19:57:51.618Z,11.15
2019-03-22T20:00:21.001Z,12.73
2019-03-22T20:02:50.578Z,14.50
2019-03-22T20:05:35.218Z,14.20
2019-03-22T20:08:04.793Z,16.50
2019-03-22T20:10:34.131Z,12.90
2019-03-22T20:13:03.458Z,15.15
2019-03-22T20:15:33.768Z,16.17
2019-03-22T20:18:03.104Z,20.02
2019-03-22T20:20:32.464Z,24.72
2019-03-22T20:23:01.794Z,20.35
2019-03-22T20:25:31.127Z,21.00
2019-03-22T20:28:00.467Z,18.77
2019-03-22T20:30:29.803Z,22.48
2019-03-22T20:32:59.133Z,18.70
2019-03-22T20:35:28.466Z,20.40
2019-03-22T20:37:57.800Z,20.50
2019-03-22T20:40:27.128Z,24.30
2019-03-22T20:42:56.465Z,16.07
2019-03-22T20:45:25.797Z,21.05
2019-03-22T20:47:55.138Z,14.83
2019-03-22T20:50:35.135Z,21.17
2019-03-22T20:52:55.500Z,16.65
2019-03-22T20:55:24.834Z,14.93
2019-03-22T20:57:54.460Z,16.75
2019-03-22T21:00:23.788Z,16.67
2019-03-22T21:02:53.118Z,18.52
2019-03-22T21:05:26.828Z,17.37
2019-03-22T21:07:53.478Z,20.70
2019-03-22T21:10:23.114Z,19.55
2019-03-22T21:12:52.457Z,23.05
2019-03-22T21:15:24.707Z,22.48
2019-03-22T21:17:52.821Z,20.20
2019-03-22T21:20:22.157Z,22.07
2019-03-22T21:22:51.485Z,20.40
2019-03-22T21:25:20.818Z,17.98
2019-03-22T21:27:50.480Z,22.07
2019-03-22T21:30:20.687Z,19.65
2019-03-22T21:32:50.898Z,19.00
2019-03-22T21:35:22.697Z,20.23
2019-03-22T21:37:51.691Z,21.27
2019-03-22T21:40:21.303Z,18.73
2019-03-22T21:42:50.649Z,21.40
2019-03-22T21:45:19.991Z,18.90
2019-03-22T21:47:49.311Z,19.48
2019-03-22T21:50:18.642Z,18.05
2019-03-22T21:52:48.306Z,19.27
2019-03-22T21:55:17.660Z,17.57
2019-03-22T21:57:47.003Z,17.07
2019-03-22T22:00:16.619Z,17.48
2019-03-22T22:02:46.027Z,17.60
2019-03-22T22:05:15.362Z,20.15
2019-03-22T22:07:44.853Z,20.00
2019-03-22T22:10:14.258Z,19.10
2019-03-22T22:12:43.591Z,19.57
2019-03-22T22:15:12.920Z,20.23
2019-03-22T22:17:42.524Z,18.40
2019-03-22T22:20:12.106Z,14.23
2019-03-22T22:22:41.449Z,16.80
2019-03-22T22:25:10.780Z,18.25
2019-03-22T22:27:40.115Z,18.40
2019-03-22T22:30:13.678Z,17.73
2019-03-22T22:32:43.010Z,20.77
2019-03-22T22:35:12.419Z,23.18
2019-03-22T22:37:41.755Z,20.17
2019-03-22T22:40:12.333Z,20.08
2019-03-22T22:42:41.907Z,27.87
2019-03-22T22:45:11.990Z,21.35
2019-03-22T22:47:41.323Z,26.00
2019-03-22T22:50:11.898Z,30.70
2019-03-22T22:52:41.224Z,33.38
2019-03-22T22:55:11.804Z,32.23
2019-03-22T22:57:41.134Z,31.00
2019-03-22T23:00:17.277Z,33.50
2019-03-22T23:02:48.304Z,38.25
2019-03-22T23:05:17.647Z,46.28
2019-03-22T23:07:46.981Z,38.20
2019-03-22T23:10:16.326Z,38.40
2019-03-22T23:12:45.661Z,39.13
2019-03-22T23:15:15.372Z,41.40
2019-03-22T23:17:45.027Z,39.75
2019-03-22T23:20:14.451Z,45.55
2019-03-22T23:22:43.784Z,41.65
2019-03-22T23:25:13.116Z,41.10
2019-03-22T23:27:42.457Z,41.25
2019-03-22T23:30:12.932Z,44.53
2019-03-22T23:32:42.575Z,38.23
2019-03-22T23:35:12.054Z,43.73
2019-03-22T23:37:41.386Z,44.08
2019-03-22T23:40:12.177Z,48.08
2019-03-22T23:42:41.519Z,47.95
2019-03-22T23:45:11.557Z,45.73
2019-03-22T23:47:41.145Z,47.73
2019-03-22T23:50:12.056Z,48.35
2019-03-22T23:52:41.395Z,46.60
2019-03-22T23:55:10.871Z,45.12
2019-03-22T23:57:40.203Z,46.60
